sensor_id;sensor_type;location;lat;lon;timestamp;temperature;humidity
43541;DHT22;29549;40.386;-3.710;2023-07-13T00:01:16;28.60;31.60
43541;DHT22;29549;40.386;-3.710;2023-07-13T00:11:17;28.60;31.50
43541;DHT22;29549;40.386;-3.710;2023-07-13T00:21:18;28.50;31.80
43541;DHT22;29549;40.386;-3.710;2023-07-13T00:31:19;28.40;32.20
43541;DHT22;29549;40.386;-3.710;2023-07-13T00:41:20;28.30;32.20
43541;DHT22;29549;40.386;-3.710;2023-07-13T00:51:25;28.30;32.60
43541;DHT22;29549;40.386;-3.710;2023-07-13T01:01:26;28.10;33.10
43541;DHT22;29549;40.386;-3.710;2023-07-13T01:11:27;28.10;33.80
43541;DHT22;29549;40.386;-3.710;2023-07-13T01:21:29;27.90;34.40
43541;DHT22;29549;40.386;-3.710;2023-07-13T01:31:32;27.80;35.10
43541;DHT22;29549;40.386;-3.710;2023-07-13T01:41:33;27.80;35.40
43541;DHT22;29549;40.386;-3.710;2023-07-13T01:51:33;27.70;35.50
43541;DHT22;29549;40.386;-3.710;2023-07-13T02:01:34;27.70;36.10
43541;DHT22;29549;40.386;-3.710;2023-07-13T02:11:35;27.60;36.30
43541;DHT22;29549;40.386;-3.710;2023-07-13T02:21:36;27.40;36.70
43541;DHT22;29549;40.386;-3.710;2023-07-13T02:31:36;27.30;37.10
43541;DHT22;29549;40.386;-3.710;2023-07-13T02:41:37;27.10;37.40
43541;DHT22;29549;40.386;-3.710;2023-07-13T02:51:38;27.20;37.10
43541;DHT22;29549;40.386;-3.710;2023-07-13T03:01:38;27.20;33.10
43541;DHT22;29549;40.386;-3.710;2023-07-13T03:11:39;27.30;32.90
43541;DHT22;29549;40.386;-3.710;2023-07-13T03:21:40;27.40;33.20
43541;DHT22;29549;40.386;-3.710;2023-07-13T03:31:40;27.30;33.30
43541;DHT22;29549;40.386;-3.710;2023-07-13T03:41:41;27.20;33.50
43541;DHT22;29549;40.386;-3.710;2023-07-13T03:51:42;27.00;33.80
43541;DHT22;29549;40.386;-3.710;2023-07-13T04:01:43;26.90;33.90
43541;DHT22;29549;40.386;-3.710;2023-07-13T04:11:44;26.80;34.70
43541;DHT22;29549;40.386;-3.710;2023-07-13T04:21:45;26.60;35.20
43541;DHT22;29549;40.386;-3.710;2023-07-13T04:31:46;26.50;37.10
43541;DHT22;29549;40.386;-3.710;2023-07-13T04:41:47;26.30;38.30
43541;DHT22;29549;40.386;-3.710;2023-07-13T04:51:48;26.20;39.10
43541;DHT22;29549;40.386;-3.710;2023-07-13T05:01:48;26.10;39.40
43541;DHT22;29549;40.386;-3.710;2023-07-13T05:11:49;25.70;38.60
43541;DHT22;29549;40.386;-3.710;2023-07-13T05:21:50;25.20;39.30
43541;DHT22;29549;40.386;-3.710;2023-07-13T05:31:50;25.00;39.40
43541;DHT22;29549;40.386;-3.710;2023-07-13T05:41:51;25.00;39.90
43541;DHT22;29549;40.386;-3.710;2023-07-13T05:51:52;24.80;40.60
43541;DHT22;29549;40.386;-3.710;2023-07-13T06:01:53;24.90;40.70
43541;DHT22;29549;40.386;-3.710;2023-07-13T06:11:54;24.70;41.40
43541;DHT22;29549;40.386;-3.710;2023-07-13T06:21:54;24.90;41.70
43541;DHT22;29549;40.386;-3.710;2023-07-13T06:31:55;25.20;41.60
43541;DHT22;29549;40.386;-3.710;2023-07-13T06:41:56;25.30;41.70
43541;DHT22;29549;40.386;-3.710;2023-07-13T06:51:56;25.40;41.90
43541;DHT22;29549;40.386;-3.710;2023-07-13T07:01:57;25.60;42.30
43541;DHT22;29549;40.386;-3.710;2023-07-13T07:11:58;26.20;41.70
43541;DHT22;29549;40.386;-3.710;2023-07-13T07:21:59;27.10;40.40
43541;DHT22;29549;40.386;-3.710;2023-07-13T07:32:00;27.70;39.60
43541;DHT22;29549;40.386;-3.710;2023-07-13T07:42:00;28.20;38.70
43541;DHT22;29549;40.386;-3.710;2023-07-13T07:52:01;28.60;38.40
43541;DHT22;29549;40.386;-3.710;2023-07-13T08:02:02;29.10;37.80
43541;DHT22;29549;40.386;-3.710;2023-07-13T08:12:03;29.30;37.50
43541;DHT22;29549;40.386;-3.710;2023-07-13T08:22:04;29.60;36.90
43541;DHT22;29549;40.386;-3.710;2023-07-13T08:32:06;29.90;37.00
43541;DHT22;29549;40.386;-3.710;2023-07-13T08:42:32;30.20;36.30
43541;DHT22;29549;40.386;-3.710;2023-07-13T08:52:39;30.70;35.10
43541;DHT22;29549;40.386;-3.710;2023-07-13T09:02:42;31.00;34.50
43541;DHT22;29549;40.386;-3.710;2023-07-13T09:23:11;31.10;33.00
43541;DHT22;29549;40.386;-3.710;2023-07-13T09:33:12;31.20;32.20
43541;DHT22;29549;40.386;-3.710;2023-07-13T09:43:16;31.40;32.00
43541;DHT22;29549;40.386;-3.710;2023-07-13T09:53:19;31.60;31.50
43541;DHT22;29549;40.386;-3.710;2023-07-13T10:03:31;31.70;30.80
43541;DHT22;29549;40.386;-3.710;2023-07-13T10:13:44;31.90;30.30
43541;DHT22;29549;40.386;-3.710;2023-07-13T10:23:48;32.10;30.20
43541;DHT22;29549;40.386;-3.710;2023-07-13T10:33:50;31.80;29.50
43541;DHT22;29549;40.386;-3.710;2023-07-13T10:43:52;31.90;30.10
43541;DHT22;29549;40.386;-3.710;2023-07-13T10:54:22;32.30;29.40
43541;DHT22;29549;40.386;-3.710;2023-07-13T11:04:29;32.60;28.80
43541;DHT22;29549;40.386;-3.710;2023-07-13T11:24:59;32.60;28.50
43541;DHT22;29549;40.386;-3.710;2023-07-13T11:35:00;32.90;27.90
43541;DHT22;29549;40.386;-3.710;2023-07-13T11:45:01;32.80;27.80
43541;DHT22;29549;40.386;-3.710;2023-07-13T11:55:05;32.90;27.40
43541;DHT22;29549;40.386;-3.710;2023-07-13T12:05:15;33.20;27.20
43541;DHT22;29549;40.386;-3.710;2023-07-13T12:15:16;33.00;27.60
43541;DHT22;29549;40.386;-3.710;2023-07-13T12:25:18;33.10;26.40
43541;DHT22;29549;40.386;-3.710;2023-07-13T12:35:19;33.40;25.70
43541;DHT22;29549;40.386;-3.710;2023-07-13T12:45:24;33.10;25.20
43541;DHT22;29549;40.386;-3.710;2023-07-13T12:55:25;33.70;24.10
43541;DHT22;29549;40.386;-3.710;2023-07-13T13:05:26;33.60;25.00
43541;DHT22;29549;40.386;-3.710;2023-07-13T13:15:27;33.80;24.60
43541;DHT22;29549;40.386;-3.710;2023-07-13T13:25:28;34.10;24.80
43541;DHT22;29549;40.386;-3.710;2023-07-13T13:35:29;33.80;24.90
43541;DHT22;29549;40.386;-3.710;2023-07-13T13:45:31;34.00;25.10
43541;DHT22;29549;40.386;-3.710;2023-07-13T13:55:32;34.30;24.40
43541;DHT22;29549;40.386;-3.710;2023-07-13T14:05:32;34.10;24.40
43541;DHT22;29549;40.386;-3.710;2023-07-13T14:15:33;34.20;23.80
43541;DHT22;29549;40.386;-3.710;2023-07-13T14:25:34;34.50;23.10
43541;DHT22;29549;40.386;-3.710;2023-07-13T14:35:35;34.60;22.50
43541;DHT22;29549;40.386;-3.710;2023-07-13T14:45:42;34.90;22.50
43541;DHT22;29549;40.386;-3.710;2023-07-13T14:55:43;34.60;22.60
43541;DHT22;29549;40.386;-3.710;2023-07-13T15:05:44;34.80;22.40
43541;DHT22;29549;40.386;-3.710;2023-07-13T15:15:51;34.80;23.10
43541;DHT22;29549;40.386;-3.710;2023-07-13T15:25:52;34.80;22.50
43541;DHT22;29549;40.386;-3.710;2023-07-13T15:35:54;34.80;21.80
43541;DHT22;29549;40.386;-3.710;2023-07-13T15:45:55;34.70;22.40
43541;DHT22;29549;40.386;-3.710;2023-07-13T15:55:57;35.00;20.80
43541;DHT22;29549;40.386;-3.710;2023-07-13T16:05:58;35.10;21.10
43541;DHT22;29549;40.386;-3.710;2023-07-13T16:15:59;35.10;20.80
43541;DHT22;29549;40.386;-3.710;2023-07-13T16:25:59;35.00;20.50
43541;DHT22;29549;40.386;-3.710;2023-07-13T16:36:00;35.30;19.50
43541;DHT22;29549;40.386;-3.710;2023-07-13T16:46:02;35.20;20.10
43541;DHT22;29549;40.386;-3.710;2023-07-13T16:56:13;35.10;20.40
43541;DHT22;29549;40.386;-3.710;2023-07-13T17:06:23;35.10;20.20
43541;DHT22;29549;40.386;-3.710;2023-07-13T17:16:24;35.10;20.20
43541;DHT22;29549;40.386;-3.710;2023-07-13T17:26:25;35.00;20.40
43541;DHT22;29549;40.386;-3.710;2023-07-13T17:36:26;35.00;19.80
43541;DHT22;29549;40.386;-3.710;2023-07-13T17:46:31;34.80;20.00
43541;DHT22;29549;40.386;-3.710;2023-07-13T17:56:32;34.70;20.30
43541;DHT22;29549;40.386;-3.710;2023-07-13T18:06:37;34.70;20.70
43541;DHT22;29549;40.386;-3.710;2023-07-13T18:16:38;34.60;20.80
43541;DHT22;29549;40.386;-3.710;2023-07-13T18:26:39;34.60;21.30
43541;DHT22;29549;40.386;-3.710;2023-07-13T18:36:42;34.40;21.70
43541;DHT22;29549;40.386;-3.710;2023-07-13T18:46:46;34.30;22.50
43541;DHT22;29549;40.386;-3.710;2023-07-13T18:56:46;34.10;22.80
43541;DHT22;29549;40.386;-3.710;2023-07-13T19:06:48;34.00;23.20
43541;DHT22;29549;40.386;-3.710;2023-07-13T19:16:49;33.80;23.60
43541;DHT22;29549;40.386;-3.710;2023-07-13T19:26:50;33.70;24.00
43541;DHT22;29549;40.386;-3.710;2023-07-13T19:37:02;33.50;24.40
43541;DHT22;29549;40.386;-3.710;2023-07-13T19:47:14;33.40;24.70
43541;DHT22;29549;40.386;-3.710;2023-07-13T19:57:16;33.20;25.40
43541;DHT22;29549;40.386;-3.710;2023-07-13T20:07:19;33.00;26.30
43541;DHT22;29549;40.386;-3.710;2023-07-13T20:17:35;32.80;26.80
43541;DHT22;29549;40.386;-3.710;2023-07-13T20:27:36;32.70;27.10
43541;DHT22;29549;40.386;-3.710;2023-07-13T20:37:38;32.60;27.30
43541;DHT22;29549;40.386;-3.710;2023-07-13T20:47:39;32.40;27.80
43541;DHT22;29549;40.386;-3.710;2023-07-13T20:57:41;32.20;28.70
43541;DHT22;29549;40.386;-3.710;2023-07-13T21:07:42;32.10;29.40
43541;DHT22;29549;40.386;-3.710;2023-07-13T21:17:44;31.90;30.20
43541;DHT22;29549;40.386;-3.710;2023-07-13T21:27:59;31.80;30.50
43541;DHT22;29549;40.386;-3.710;2023-07-13T21:38:01;31.70;30.90
43541;DHT22;29549;40.386;-3.710;2023-07-13T21:48:02;31.60;31.10
43541;DHT22;29549;40.386;-3.710;2023-07-13T21:58:05;31.30;31.20
43541;DHT22;29549;40.386;-3.710;2023-07-13T22:08:12;31.10;31.30
43541;DHT22;29549;40.386;-3.710;2023-07-13T22:18:19;30.90;31.60
43541;DHT22;29549;40.386;-3.710;2023-07-13T22:28:24;30.80;31.60
43541;DHT22;29549;40.386;-3.710;2023-07-13T22:38:35;30.60;31.60
43541;DHT22;29549;40.386;-3.710;2023-07-13T22:48:41;30.50;31.40
43541;DHT22;29549;40.386;-3.710;2023-07-13T22:58:43;30.40;31.40
43541;DHT22;29549;40.386;-3.710;2023-07-13T23:08:44;30.20;31.70
43541;DHT22;29549;40.386;-3.710;2023-07-13T23:18:45;30.00;32.30
43541;DHT22;29549;40.386;-3.710;2023-07-13T23:28:48;29.80;32.60
43541;DHT22;29549;40.386;-3.710;2023-07-13T23:38:49;29.80;32.50
43541;DHT22;29549;40.386;-3.710;2023-07-13T23:48:57;29.60;33.10
43541;DHT22;29549;40.386;-3.710;2023-07-13T23:58:59;29.60;33.00
